createdAt,value
2016-03-07T00:00:26.810Z,0
2016-03-07T00:01:26.860Z,0
2016-03-07T00:02:26.815Z,0
2016-03-07T00:03:26.803Z,0
2016-03-07T00:04:26.790Z,0
2016-03-07T00:05:26.793Z,0
2016-03-07T00:06:26.795Z,0
2016-03-07T00:07:26.782Z,0
2016-03-07T00:08:26.785Z,0
2016-03-07T00:09:26.787Z,0
2016-03-07T00:10:26.774Z,0
2016-03-07T00:11:26.777Z,0
2016-03-07T00:12:26.796Z,0
2016-03-07T00:13:26.752Z,0
2016-03-07T00:14:26.754Z,0
2016-03-07T00:15:26.787Z,0
2016-03-07T00:16:26.760Z,0
2016-03-07T00:17:26.762Z,0
2016-03-07T00:18:26.749Z,0
2016-03-07T00:19:26.737Z,0
2016-03-07T00:20:26.723Z,0
2016-03-07T00:21:26.726Z,0
2016-03-07T00:22:26.729Z,0
2016-03-07T00:23:26.575Z,0
2016-03-07T00:24:26.718Z,0
2016-03-07T00:25:26.706Z,0
2016-03-07T00:26:26.708Z,0
2016-03-07T00:27:26.694Z,0
2016-03-07T00:28:26.697Z,0
2016-03-07T00:29:27.435Z,0
2016-03-07T00:30:26.688Z,0
2016-03-07T00:31:26.691Z,0
2016-03-07T00:32:26.677Z,0
2016-03-07T00:33:26.696Z,0
2016-03-07T00:34:26.668Z,0
2016-03-07T00:35:26.671Z,0
2016-03-07T00:36:26.688Z,0
2016-03-07T00:37:26.675Z,0
2016-03-07T00:38:26.679Z,0
2016-03-07T00:39:26.649Z,0
2016-03-07T00:40:26.652Z,0
2016-03-07T00:41:26.655Z,0
2016-03-07T00:42:26.642Z,0
2016-03-07T00:43:26.707Z,0
2016-03-07T00:44:26.663Z,0
2016-03-07T00:45:26.650Z,0
2016-03-07T00:46:26.636Z,0
2016-03-07T00:47:26.656Z,0
2016-03-07T00:48:26.611Z,0
2016-03-07T00:49:26.645Z,0
2016-03-07T00:50:26.617Z,0
2016-03-07T00:51:26.619Z,0
2016-03-07T00:52:26.606Z,0
2016-03-07T00:53:26.594Z,0
2016-03-07T00:54:26.627Z,0
2016-03-07T00:55:26.583Z,0
2016-03-07T00:56:26.602Z,0
2016-03-07T00:57:26.604Z,0
2016-03-07T00:58:26.638Z,0
2016-03-07T00:59:26.578Z,0
2016-03-07T01:00:26.566Z,0
2016-03-07T01:01:26.568Z,0
2016-03-07T01:02:26.555Z,0
2016-03-07T01:03:26.558Z,0
2016-03-07T01:04:26.576Z,0
2016-03-07T01:05:26.563Z,0
2016-03-07T01:06:26.550Z,0
2016-03-07T01:07:26.568Z,0
2016-03-07T01:08:26.541Z,0
2016-03-07T01:09:26.558Z,0
2016-03-07T01:10:26.545Z,0
2016-03-07T01:11:26.532Z,0
2016-03-07T01:12:26.551Z,0
2016-03-07T01:13:26.584Z,0
2016-03-07T01:14:26.525Z,0
2016-03-07T01:15:26.528Z,0
2016-03-07T01:16:26.514Z,0
2016-03-07T01:17:26.518Z,0
2016-03-07T01:18:26.536Z,0
2016-03-07T01:19:26.492Z,0
2016-03-07T01:20:26.525Z,0
2016-03-07T01:21:26.497Z,0
2016-03-07T01:22:26.515Z,0
2016-03-07T01:23:26.517Z,0
2016-03-07T01:24:26.489Z,0
2016-03-07T01:25:26.492Z,0
2016-03-07T01:26:26.464Z,0
2016-03-07T01:27:26.482Z,0
2016-03-07T01:28:26.484Z,0
2016-03-07T01:29:26.455Z,0
2016-03-07T01:30:26.490Z,0
2016-03-07T01:31:26.461Z,0
2016-03-07T01:32:26.463Z,0
2016-03-07T01:33:26.451Z,0
2016-03-07T01:34:26.454Z,0
2016-03-07T01:35:26.471Z,0
2016-03-07T01:36:26.444Z,0
2016-03-07T01:37:26.430Z,0
2016-03-07T01:38:26.448Z,0
2016-03-07T01:39:26.421Z,0
2016-03-07T01:40:26.438Z,0
2016-03-07T01:41:26.441Z,0
2016-03-07T01:42:26.412Z,0
2016-03-07T01:43:26.462Z,0
2016-03-07T01:44:26.418Z,0
2016-03-07T01:45:26.390Z,0
2016-03-07T01:46:26.392Z,0
2016-03-07T01:47:26.426Z,0
2016-03-07T01:48:26.398Z,0
2016-03-07T01:49:26.384Z,0
2016-03-07T01:50:26.387Z,0
2016-03-07T01:51:26.389Z,0
2016-03-07T01:52:26.393Z,0
2016-03-07T01:53:26.364Z,0
2016-03-07T01:54:26.398Z,0
2016-03-07T01:55:26.448Z,0
2016-03-07T01:56:26.356Z,0
2016-03-07T01:57:26.375Z,0
2016-03-07T01:58:26.347Z,0
2016-03-07T01:59:26.333Z,0
2016-03-07T02:00:26.351Z,0
2016-03-07T02:01:26.355Z,0
2016-03-07T02:02:26.341Z,0
2016-03-07T02:03:26.328Z,0
2016-03-07T02:04:26.347Z,0
2016-03-07T02:05:26.177Z,0
2016-03-07T02:06:26.368Z,0
2016-03-07T02:07:26.339Z,0
2016-03-07T02:08:26.295Z,0
2016-03-07T02:09:26.298Z,0
2016-03-07T02:10:26.316Z,0
2016-03-07T02:11:26.304Z,0
2016-03-07T02:12:26.306Z,0
2016-03-07T02:13:26.293Z,0
2016-03-07T02:14:26.280Z,0
2016-03-07T02:15:26.282Z,0
2016-03-07T02:16:26.285Z,0
2016-03-07T02:17:26.273Z,0
2016-03-07T02:18:26.290Z,0
2016-03-07T02:19:26.278Z,0
2016-03-07T02:20:26.265Z,0
2016-03-07T02:21:26.284Z,0
2016-03-07T02:22:26.287Z,0
2016-03-07T02:23:26.242Z,0
2016-03-07T02:24:26.260Z,0
2016-03-07T02:25:26.247Z,0
2016-03-07T02:26:26.250Z,0
2016-03-07T02:27:26.253Z,0
2016-03-07T02:28:26.239Z,0
2016-03-07T02:29:26.243Z,0
2016-03-07T02:30:26.245Z,0
2016-03-07T02:31:26.248Z,0
2016-03-07T02:32:26.219Z,0
2016-03-07T02:33:26.238Z,0
2016-03-07T02:34:26.224Z,0
2016-03-07T02:35:26.196Z,0
2016-03-07T02:36:26.230Z,0
2016-03-07T02:37:26.186Z,0
2016-03-07T02:38:26.205Z,0
2016-03-07T02:39:26.191Z,0
2016-03-07T02:40:26.194Z,0
2016-03-07T02:41:26.227Z,0
2016-03-07T02:42:26.183Z,0
2016-03-07T02:43:26.186Z,0
2016-03-07T02:44:26.173Z,0
2016-03-07T02:45:26.177Z,0
2016-03-07T02:46:26.194Z,0
2016-03-07T02:47:26.151Z,0
2016-03-07T02:48:26.153Z,0
2016-03-07T02:49:26.156Z,0
2016-03-07T02:50:26.143Z,0
2016-03-07T02:51:26.161Z,0
2016-03-07T02:52:26.148Z,0
2016-03-07T02:53:26.135Z,0
2016-03-07T02:54:26.138Z,0
2016-03-07T02:55:26.125Z,0
2016-03-07T02:56:26.128Z,0
2016-03-07T02:57:26.114Z,0
2016-03-07T02:58:26.101Z,0
2016-03-07T02:59:26.120Z,0
2016-03-07T03:00:26.091Z,0
2016-03-07T03:01:26.110Z,0
2016-03-07T03:02:26.112Z,0
2016-03-07T03:03:26.131Z,0
2016-03-07T03:04:26.086Z,0
2016-03-07T03:05:26.089Z,0
2016-03-07T03:06:26.077Z,0
2016-03-07T03:07:26.094Z,0
2016-03-07T03:08:26.113Z,0
2016-03-07T03:09:25.960Z,0
2016-03-07T03:10:26.134Z,0
2016-03-07T03:11:26.043Z,0
2016-03-07T03:12:26.061Z,0
2016-03-07T03:13:26.064Z,0
2016-03-07T03:14:26.051Z,0
2016-03-07T03:15:26.038Z,0
2016-03-07T03:16:26.040Z,0
2016-03-07T03:17:26.075Z,0
2016-03-07T03:18:26.046Z,0
2016-03-07T03:19:26.096Z,0
2016-03-07T03:20:26.114Z,0
2016-03-07T03:21:26.038Z,0
2016-03-07T03:22:26.010Z,0
2016-03-07T03:23:26.028Z,0
2016-03-07T03:24:26.000Z,0
2016-03-07T03:25:25.987Z,0
2016-03-07T03:26:25.849Z,0
2016-03-07T03:27:25.976Z,0
2016-03-07T03:28:25.979Z,0
2016-03-07T03:29:25.967Z,0
2016-03-07T03:30:25.984Z,0
2016-03-07T03:31:25.956Z,0
2016-03-07T03:32:25.974Z,0
2016-03-07T03:33:25.961Z,0
2016-03-07T03:34:25.964Z,0
2016-03-07T03:35:26.076Z,0
2016-03-07T03:36:25.939Z,0
2016-03-07T03:37:25.925Z,0
2016-03-07T03:38:25.975Z,0
2016-03-07T03:39:25.930Z,0
2016-03-07T03:40:25.933Z,0
2016-03-07T03:41:25.921Z,0
2016-03-07T03:42:25.908Z,0
2016-03-07T03:43:25.941Z,0
2016-03-07T03:44:25.913Z,0
2016-03-07T03:45:25.900Z,0
2016-03-07T03:46:25.887Z,0
2016-03-07T03:47:25.905Z,0
2016-03-07T03:48:25.892Z,0
2016-03-07T03:49:25.879Z,0
2016-03-07T03:50:25.866Z,0
2016-03-07T03:51:25.869Z,0
2016-03-07T03:52:25.871Z,0
2016-03-07T03:53:25.859Z,0
2016-03-07T03:54:25.861Z,0
2016-03-07T03:55:25.848Z,0
2016-03-07T03:56:25.867Z,0
2016-03-07T03:57:25.839Z,0
2016-03-07T03:58:25.841Z,0
2016-03-07T03:59:25.860Z,0
2016-03-07T04:00:25.831Z,0
2016-03-07T04:01:25.834Z,0
2016-03-07T04:02:25.836Z,0
2016-03-07T04:03:25.839Z,0
2016-03-07T04:04:25.794Z,0
2016-03-07T04:05:25.798Z,0
2016-03-07T04:06:25.831Z,0
2016-03-07T04:07:25.787Z,0
2016-03-07T04:08:25.789Z,0
2016-03-07T04:09:25.777Z,0
2016-03-07T04:10:25.780Z,0
2016-03-07T04:11:25.830Z,0
2016-03-07T04:12:25.754Z,0
2016-03-07T04:13:25.772Z,0
2016-03-07T04:14:25.744Z,0
2016-03-07T04:15:25.747Z,0
2016-03-07T04:16:25.749Z,0
2016-03-07T04:17:25.735Z,0
2016-03-07T04:18:25.723Z,0
2016-03-07T04:19:25.726Z,0
2016-03-07T04:20:25.713Z,0
2016-03-07T04:21:25.699Z,0
2016-03-07T04:22:25.702Z,0
2016-03-07T04:23:25.704Z,0
2016-03-07T04:24:25.692Z,0
2016-03-07T04:25:25.710Z,0
2016-03-07T04:26:25.682Z,0
2016-03-07T04:27:25.669Z,0
2016-03-07T04:28:25.704Z,0
2016-03-07T04:29:25.675Z,0
2016-03-07T04:30:25.724Z,0
2016-03-07T04:31:25.648Z,0
2016-03-07T04:32:25.651Z,0
2016-03-07T04:33:25.669Z,0
2016-03-07T04:34:25.642Z,0
2016-03-07T04:35:25.591Z,0
2016-03-07T04:36:25.618Z,0
2016-03-07T04:37:25.652Z,0
2016-03-07T04:38:25.624Z,0
2016-03-07T04:39:25.611Z,0
2016-03-07T04:40:25.645Z,0
2016-03-07T04:41:25.604Z,0
2016-03-07T04:42:25.498Z,0
2016-03-07T04:43:25.625Z,0
2016-03-07T04:44:25.504Z,0
2016-03-07T04:45:25.615Z,0
2016-03-07T04:46:25.571Z,0
2016-03-07T04:47:25.573Z,0
2016-03-07T04:48:25.576Z,0
2016-03-07T04:49:25.548Z,0
2016-03-07T04:50:25.567Z,0
2016-03-07T04:51:25.553Z,0
2016-03-07T04:52:25.540Z,0
2016-03-07T04:53:25.543Z,0
2016-03-07T04:54:25.577Z,0
2016-03-07T04:55:25.533Z,0
2016-03-07T04:56:25.519Z,0
2016-03-07T04:57:25.538Z,0
2016-03-07T04:58:25.494Z,0
2016-03-07T04:59:25.512Z,0
2016-03-07T05:00:25.483Z,0
2016-03-07T05:01:25.549Z,0
2016-03-07T05:02:25.489Z,0
2016-03-07T05:03:25.476Z,0
2016-03-07T05:04:25.494Z,0
2016-03-07T05:05:25.481Z,0
2016-03-07T05:06:25.476Z,0
2016-03-07T05:07:25.494Z,0
2016-03-07T05:08:25.466Z,0
2016-03-07T05:09:25.438Z,0
2016-03-07T05:10:25.455Z,0
2016-03-07T05:11:25.443Z,0
2016-03-07T05:12:25.430Z,0
2016-03-07T05:13:25.448Z,0
2016-03-07T05:14:25.420Z,0
2016-03-07T05:15:25.422Z,0
2016-03-07T05:16:25.425Z,0
2016-03-07T05:17:25.459Z,0
2016-03-07T05:18:25.399Z,0
2016-03-07T05:19:25.401Z,0
2016-03-07T05:20:25.389Z,0
2016-03-07T05:21:25.375Z,0
2016-03-07T05:22:25.378Z,0
2016-03-07T05:23:25.428Z,0
2016-03-07T05:24:25.400Z,0
2016-03-07T05:25:25.464Z,0
2016-03-07T05:26:25.483Z,4
2016-03-07T05:27:25.361Z,4
2016-03-07T05:28:25.379Z,4
2016-03-07T05:29:25.366Z,4
2016-03-07T05:30:25.338Z,0
2016-03-07T05:31:25.355Z,0
2016-03-07T05:32:25.344Z,4
2016-03-07T05:33:25.330Z,4
2016-03-07T05:34:25.317Z,4
2016-03-07T05:35:25.335Z,4
2016-03-07T05:36:25.338Z,4
2016-03-07T05:37:25.310Z,8
2016-03-07T05:38:25.297Z,8
2016-03-07T05:39:25.299Z,8
2016-03-07T05:40:25.318Z,12
2016-03-07T05:41:25.289Z,16
2016-03-07T05:42:25.276Z,16
2016-03-07T05:43:25.279Z,24
2016-03-07T05:44:25.296Z,24
2016-03-07T05:45:25.331Z,36
2016-03-07T05:46:25.271Z,40
2016-03-07T05:47:25.259Z,44
2016-03-07T05:48:25.245Z,52
2016-03-07T05:49:25.279Z,64
2016-03-07T05:50:25.250Z,72
2016-03-07T05:51:25.223Z,80
2016-03-07T05:52:25.240Z,92
2016-03-07T05:53:25.228Z,104
2016-03-07T05:54:25.261Z,120
2016-03-07T05:55:25.234Z,132
2016-03-07T05:56:25.220Z,144
2016-03-07T05:57:25.239Z,156
2016-03-07T05:58:25.225Z,168
2016-03-07T05:59:25.291Z,188
2016-03-07T06:00:25.231Z,200
2016-03-07T06:01:25.218Z,216
2016-03-07T06:02:25.189Z,236
2016-03-07T06:03:25.177Z,252
2016-03-07T06:04:25.163Z,268
2016-03-07T06:05:25.182Z,292
2016-03-07T06:06:25.169Z,312
2016-03-07T06:07:25.171Z,332
2016-03-07T06:08:25.174Z,360
2016-03-07T06:09:25.177Z,392
2016-03-07T06:10:25.180Z,420
2016-03-07T06:11:25.166Z,456
2016-03-07T06:12:25.138Z,492
2016-03-07T06:13:25.140Z,524
2016-03-07T06:14:25.034Z,556
2016-03-07T06:15:25.130Z,592
2016-03-07T06:16:25.133Z,632
2016-03-07T06:17:25.151Z,668
2016-03-07T06:18:25.123Z,704
2016-03-07T06:19:25.125Z,744
2016-03-07T06:20:25.129Z,784
2016-03-07T06:21:25.131Z,832
2016-03-07T06:22:25.103Z,868
2016-03-07T06:23:25.105Z,912
2016-03-07T06:24:25.109Z,956
2016-03-07T06:25:25.095Z,1008
2016-03-07T06:26:25.082Z,1064
2016-03-07T06:27:25.084Z,1120
2016-03-07T06:28:24.915Z,1180
2016-03-07T06:29:25.137Z,1236
2016-03-07T06:30:25.078Z,1296
2016-03-07T06:31:25.080Z,1360
2016-03-07T06:32:25.051Z,1424
2016-03-07T06:33:25.053Z,1492
2016-03-07T06:34:25.103Z,1552
2016-03-07T06:35:25.138Z,1608
2016-03-07T06:36:25.061Z,1676
2016-03-07T06:37:25.033Z,1740
2016-03-07T06:38:25.021Z,1796
2016-03-07T06:39:25.024Z,1852
2016-03-07T06:40:25.041Z,1904
2016-03-07T06:41:24.997Z,1952
2016-03-07T06:42:25.031Z,2024
2016-03-07T06:43:25.019Z,2132
2016-03-07T06:44:25.021Z,2236
2016-03-07T06:45:25.008Z,2336
2016-03-07T06:46:24.995Z,2400
2016-03-07T06:47:24.998Z,2444
2016-03-07T06:48:24.250Z,2484
2016-03-07T06:49:24.988Z,2520
2016-03-07T06:50:24.974Z,2564
2016-03-07T06:51:24.962Z,2576
2016-03-07T06:52:25.012Z,2580
2016-03-07T06:53:24.968Z,2584
2016-03-07T06:54:24.954Z,2628
2016-03-07T06:55:24.988Z,2680
2016-03-07T06:56:24.944Z,2696
2016-03-07T06:57:24.942Z,2712
2016-03-07T06:58:24.945Z,2760
2016-03-07T06:59:24.886Z,2772
2016-03-07T07:00:24.874Z,2796
2016-03-07T07:01:24.862Z,2848
2016-03-07T07:02:24.839Z,2904
2016-03-07T07:03:24.836Z,2976
2016-03-07T07:04:24.864Z,3004
2016-03-07T07:05:24.815Z,3040
2016-03-07T07:06:24.827Z,3092
2016-03-07T07:07:24.826Z,3124
2016-03-07T07:08:24.639Z,3140
2016-03-07T07:09:24.812Z,3164
2016-03-07T07:10:24.797Z,3180
2016-03-07T07:11:24.783Z,3188
2016-03-07T07:12:24.768Z,3216
2016-03-07T07:13:24.770Z,3340
2016-03-07T07:14:24.788Z,3432
2016-03-07T07:15:24.775Z,3400
2016-03-07T07:16:24.762Z,3412
2016-03-07T07:17:24.768Z,3368
2016-03-07T07:18:24.770Z,3576
2016-03-07T07:19:24.758Z,3836
2016-03-07T07:20:24.589Z,3744
2016-03-07T07:21:24.732Z,3604
2016-03-07T07:22:24.734Z,3652
2016-03-07T07:23:24.736Z,3632
2016-03-07T07:24:24.724Z,3612
2016-03-07T07:25:24.710Z,3640
2016-03-07T07:26:24.713Z,3908
2016-03-07T07:27:24.715Z,4120
2016-03-07T07:28:24.734Z,3824
2016-03-07T07:29:24.720Z,3488
2016-03-07T07:30:24.723Z,3452
2016-03-07T07:31:24.695Z,3448
2016-03-07T07:32:24.557Z,3440
2016-03-07T07:33:24.701Z,3460
2016-03-07T07:34:24.703Z,3508
2016-03-07T07:35:24.690Z,3584
2016-03-07T07:36:24.693Z,3732
2016-03-07T07:37:24.695Z,4824
2016-03-07T07:38:24.698Z,5112
2016-03-07T07:39:24.670Z,4980
2016-03-07T07:40:24.735Z,5488
2016-03-07T07:41:24.675Z,5344
2016-03-07T07:42:24.662Z,5244
2016-03-07T07:43:24.681Z,5192
2016-03-07T07:44:24.668Z,5024
2016-03-07T07:45:24.671Z,5120
2016-03-07T07:46:24.688Z,5196
2016-03-07T07:47:24.692Z,5188
2016-03-07T07:48:24.679Z,5204
2016-03-07T07:49:24.666Z,5220
2016-03-07T07:50:24.699Z,5476
2016-03-07T07:51:24.671Z,5700
2016-03-07T07:52:24.673Z,5908
2016-03-07T07:53:24.676Z,6088
2016-03-07T07:54:24.678Z,6088
2016-03-07T07:55:24.665Z,6140
2016-03-07T07:56:24.684Z,6156
2016-03-07T07:57:24.687Z,6216
2016-03-07T07:58:24.674Z,6280
2016-03-07T07:59:24.692Z,6348
2016-03-07T08:00:24.695Z,6344
2016-03-07T08:01:24.682Z,6424
2016-03-07T08:02:24.685Z,6284
2016-03-07T08:03:24.703Z,6312
2016-03-07T08:04:24.737Z,6320
2016-03-07T08:05:24.755Z,6336
2016-03-07T08:06:24.711Z,6336
2016-03-07T08:07:24.744Z,6352
2016-03-07T08:08:24.716Z,6348
2016-03-07T08:09:24.735Z,6344
2016-03-07T08:10:24.722Z,6340
2016-03-07T08:11:24.755Z,6392
2016-03-07T08:12:24.744Z,6388
2016-03-07T08:13:24.761Z,6416
2016-03-07T08:14:24.749Z,6352
2016-03-07T08:15:24.752Z,6304
2016-03-07T08:16:24.769Z,6276
2016-03-07T08:17:24.772Z,6252
2016-03-07T08:18:24.759Z,6084
2016-03-07T08:19:24.808Z,6016
2016-03-07T08:20:24.796Z,6136
2016-03-07T08:21:24.813Z,6144
2016-03-07T08:22:24.816Z,6180
2016-03-07T08:23:24.818Z,6208
2016-03-07T08:24:24.821Z,6228
2016-03-07T08:25:24.824Z,6236
2016-03-07T08:26:24.827Z,5756
2016-03-07T08:27:24.830Z,5604
2016-03-07T08:28:24.833Z,5540
2016-03-07T08:29:24.867Z,5372
2016-03-07T08:30:24.870Z,5560
2016-03-07T08:31:24.840Z,5672
2016-03-07T08:32:24.843Z,5552
2016-03-07T08:33:24.862Z,5608
2016-03-07T08:34:24.864Z,5720
2016-03-07T08:35:24.867Z,5868
2016-03-07T08:36:24.870Z,6076
2016-03-07T08:37:24.888Z,6544
2016-03-07T08:38:24.875Z,6680
2016-03-07T08:39:24.894Z,7244
2016-03-07T08:40:24.724Z,7756
2016-03-07T08:41:24.868Z,7936
2016-03-07T08:42:24.870Z,8008
2016-03-07T08:43:24.873Z,8212
2016-03-07T08:44:24.891Z,8540
2016-03-07T08:45:24.894Z,8824
2016-03-07T08:46:24.881Z,8832
2016-03-07T08:47:24.869Z,8996
2016-03-07T08:48:24.886Z,8488
2016-03-07T08:49:24.888Z,8524
2016-03-07T08:50:24.877Z,9212
2016-03-07T08:51:24.894Z,10012
2016-03-07T08:52:24.882Z,10328
2016-03-07T08:53:24.884Z,10308
2016-03-07T08:54:24.871Z,10268
2016-03-07T08:55:24.905Z,10384
2016-03-07T08:56:24.876Z,10424
2016-03-07T08:57:24.926Z,10384
2016-03-07T08:58:24.867Z,10580
2016-03-07T08:59:24.885Z,10412
2016-03-07T09:00:24.872Z,10476
2016-03-07T09:01:24.921Z,10408
2016-03-07T09:02:24.877Z,10020
2016-03-07T09:03:24.896Z,9884
2016-03-07T09:04:25.508Z,9720
2016-03-07T09:05:24.886Z,9284
2016-03-07T09:06:24.904Z,9328
2016-03-07T09:07:24.891Z,8580
2016-03-07T09:08:24.894Z,8472
2016-03-07T09:09:24.896Z,7524
2016-03-07T09:10:24.899Z,8896
2016-03-07T09:11:24.902Z,9056
2016-03-07T09:12:25.139Z,8600
2016-03-07T09:13:24.891Z,9120
2016-03-07T09:14:24.894Z,7496
2016-03-07T09:15:24.897Z,8668
2016-03-07T09:16:24.899Z,7540
2016-03-07T09:17:24.902Z,6832
2016-03-07T09:18:24.749Z,6552
2016-03-07T09:19:24.752Z,6416
2016-03-07T09:20:25.582Z,6896
2016-03-07T09:21:24.897Z,6988
2016-03-07T09:22:24.916Z,6900
2016-03-07T09:23:24.903Z,6952
2016-03-07T09:24:24.904Z,6980
2016-03-07T09:25:24.892Z,6916
2016-03-07T09:26:24.910Z,6788
2016-03-07T09:27:24.898Z,6680
2016-03-07T09:28:24.900Z,6668
2016-03-07T09:29:24.934Z,6696
2016-03-07T09:30:24.921Z,6748
2016-03-07T09:31:24.909Z,6824
2016-03-07T09:32:24.911Z,6876
2016-03-07T09:33:24.914Z,6840
2016-03-07T09:34:24.901Z,6800
2016-03-07T09:35:24.904Z,6808
2016-03-07T09:36:24.922Z,6796
2016-03-07T09:37:24.908Z,6780
2016-03-07T09:38:24.927Z,6800
2016-03-07T09:39:24.898Z,6804
2016-03-07T09:40:24.917Z,6776
2016-03-07T09:41:24.889Z,6732
2016-03-07T09:42:24.892Z,6688
2016-03-07T09:43:24.925Z,6628
2016-03-07T09:44:24.897Z,6548
2016-03-07T09:45:24.900Z,6476
2016-03-07T09:46:24.886Z,6308
2016-03-07T09:47:24.889Z,6136
2016-03-07T09:48:24.891Z,5928
2016-03-07T09:49:24.941Z,5744
2016-03-07T09:50:24.896Z,5612
2016-03-07T09:51:24.915Z,5492
2016-03-07T09:52:24.902Z,5380
2016-03-07T09:53:24.905Z,5256
2016-03-07T09:54:24.893Z,5144
2016-03-07T09:55:24.910Z,5044
2016-03-07T09:56:24.882Z,4928
2016-03-07T09:57:24.901Z,4828
2016-03-07T09:58:24.904Z,4736
2016-03-07T09:59:24.890Z,4660
2016-03-07T10:00:24.877Z,4600
2016-03-07T10:01:24.896Z,4548
2016-03-07T10:02:24.882Z,4504
2016-03-07T10:03:24.900Z,4448
2016-03-07T10:04:24.887Z,4412
2016-03-07T10:05:24.922Z,4400
2016-03-07T10:06:24.894Z,4396
2016-03-07T10:07:24.881Z,4412
2016-03-07T10:08:24.884Z,4460
2016-03-07T10:09:24.887Z,4528
2016-03-07T10:10:24.889Z,4636
2016-03-07T10:11:24.876Z,4792
2016-03-07T10:12:24.910Z,4912
2016-03-07T10:13:24.865Z,5004
2016-03-07T10:14:25.087Z,5076
2016-03-07T10:15:24.887Z,5108
2016-03-07T10:16:24.874Z,5128
2016-03-07T10:17:24.877Z,5144
2016-03-07T10:18:24.880Z,5144
2016-03-07T10:19:24.868Z,5136
2016-03-07T10:20:24.886Z,5148
2016-03-07T10:21:24.873Z,5184
2016-03-07T10:22:24.860Z,5192
2016-03-07T10:23:24.878Z,5288
2016-03-07T10:24:24.726Z,5288
2016-03-07T10:25:24.884Z,5320
2016-03-07T10:26:24.856Z,5356
2016-03-07T10:27:24.858Z,5488
2016-03-07T10:28:24.892Z,5712
2016-03-07T10:29:24.848Z,6012
2016-03-07T10:30:24.726Z,6264
2016-03-07T10:31:24.697Z,6480
2016-03-07T10:32:24.872Z,6644
2016-03-07T10:33:24.843Z,6660
2016-03-07T10:34:24.877Z,6732
2016-03-07T10:35:24.848Z,7032
2016-03-07T10:36:24.866Z,7328
2016-03-07T10:37:24.838Z,7236
2016-03-07T10:38:24.888Z,7180
2016-03-07T10:39:24.844Z,7128
2016-03-07T10:40:24.908Z,7120
2016-03-07T10:41:24.833Z,7116
2016-03-07T10:42:24.852Z,7064
2016-03-07T10:43:24.822Z,6912
2016-03-07T10:44:24.825Z,6668
2016-03-07T10:45:24.844Z,6420
2016-03-07T10:46:24.816Z,6184
2016-03-07T10:47:24.849Z,5936
2016-03-07T10:48:24.805Z,5724
2016-03-07T10:49:24.824Z,5484
2016-03-07T10:50:24.810Z,5224
2016-03-07T10:51:24.829Z,5032
2016-03-07T10:52:24.801Z,4936
2016-03-07T10:53:24.678Z,4868
2016-03-07T10:54:24.806Z,4860
2016-03-07T10:55:24.839Z,4912
2016-03-07T10:56:24.812Z,5028
2016-03-07T10:57:24.876Z,5204
2016-03-07T10:58:24.801Z,5420
2016-03-07T10:59:24.819Z,5608
2016-03-07T11:00:25.409Z,5772
2016-03-07T11:01:24.660Z,5860
2016-03-07T11:02:25.343Z,6004
2016-03-07T11:03:28.806Z,6112
2016-03-07T11:04:24.824Z,6204
2016-03-07T11:05:24.811Z,6244
2016-03-07T11:06:24.798Z,6276
2016-03-07T11:07:24.832Z,6332
2016-03-07T11:08:24.804Z,6376
2016-03-07T11:09:24.838Z,6388
2016-03-07T11:10:24.794Z,6380
2016-03-07T11:11:24.796Z,6320
2016-03-07T11:12:24.783Z,6260
2016-03-07T11:13:24.771Z,6216
2016-03-07T11:14:24.788Z,6168
2016-03-07T11:15:24.868Z,6172
2016-03-07T11:16:24.778Z,6164
2016-03-07T11:17:24.796Z,6216
2016-03-07T11:18:24.784Z,6272
2016-03-07T11:19:24.895Z,6572
2016-03-07T11:20:24.773Z,6788
2016-03-07T11:21:24.776Z,6996
2016-03-07T11:22:24.778Z,7124
2016-03-07T11:23:24.766Z,7692
2016-03-07T11:24:24.768Z,7796
2016-03-07T11:25:24.770Z,8076
2016-03-07T11:26:24.758Z,7984
2016-03-07T11:27:24.761Z,6776
2016-03-07T11:28:24.763Z,6740
2016-03-07T11:29:25.250Z,6104
2016-03-07T11:30:24.769Z,6012
2016-03-07T11:31:24.741Z,5836
2016-03-07T11:32:24.743Z,5664
2016-03-07T11:33:24.746Z,5508
2016-03-07T11:34:24.764Z,5460
2016-03-07T11:35:24.735Z,5376
2016-03-07T11:36:24.800Z,5352
2016-03-07T11:37:24.741Z,5396
2016-03-07T11:38:24.744Z,6072
2016-03-07T11:39:27.762Z,6460
2016-03-07T11:40:24.732Z,7220
2016-03-07T11:41:24.752Z,7256
2016-03-07T11:42:24.754Z,7356
2016-03-07T11:43:24.007Z,7372
2016-03-07T11:44:25.150Z,7340
2016-03-07T11:45:24.810Z,7316
2016-03-07T11:46:24.749Z,7276
2016-03-07T11:47:24.751Z,7244
2016-03-07T11:48:24.724Z,7216
2016-03-07T11:49:24.757Z,7164
2016-03-07T11:50:24.822Z,7292
2016-03-07T11:51:24.748Z,7276
2016-03-07T11:52:24.735Z,7028
2016-03-07T11:53:24.737Z,6308
2016-03-07T11:54:24.723Z,5852
2016-03-07T11:55:24.789Z,5524
2016-03-07T11:56:24.729Z,6072
2016-03-07T11:57:24.731Z,6216
2016-03-07T11:58:24.734Z,5912
2016-03-07T11:59:24.722Z,5808
2016-03-07T12:00:24.615Z,5476
2016-03-07T12:01:24.743Z,5084
2016-03-07T12:02:24.714Z,5084
2016-03-07T12:03:24.733Z,5124
2016-03-07T12:04:24.719Z,5176
2016-03-07T12:05:24.738Z,5252
2016-03-07T12:06:24.744Z,5360
2016-03-07T12:07:24.603Z,5556
2016-03-07T12:08:24.715Z,5804
2016-03-07T12:09:24.717Z,6068
2016-03-07T12:10:24.767Z,6392
2016-03-07T12:11:24.723Z,6792
2016-03-07T12:12:24.725Z,7128
2016-03-07T12:13:24.728Z,7396
2016-03-07T12:14:24.731Z,7644
2016-03-07T12:15:24.764Z,7956
2016-03-07T12:16:24.704Z,8172
2016-03-07T12:17:24.708Z,8192
2016-03-07T12:18:24.726Z,8124
2016-03-07T12:19:24.712Z,8008
2016-03-07T12:20:24.762Z,7844
2016-03-07T12:21:24.718Z,7676
2016-03-07T12:22:24.706Z,7564
2016-03-07T12:23:24.692Z,7388
2016-03-07T12:24:24.695Z,7200
2016-03-07T12:25:24.698Z,7136
2016-03-07T12:26:24.700Z,7216
2016-03-07T12:27:24.719Z,7420
2016-03-07T12:28:24.690Z,7696
2016-03-07T12:29:24.693Z,7980
2016-03-07T12:30:24.728Z,8300
2016-03-07T12:31:24.698Z,8648
2016-03-07T12:32:24.701Z,8940
2016-03-07T12:33:24.688Z,9112
2016-03-07T12:34:24.691Z,9192
2016-03-07T12:35:24.709Z,9308
2016-03-07T12:36:24.696Z,9668
2016-03-07T12:37:24.699Z,10116
2016-03-07T12:38:24.717Z,10632
2016-03-07T12:39:24.704Z,11088
2016-03-07T12:40:24.707Z,11516
2016-03-07T12:41:24.710Z,11836
2016-03-07T12:42:24.713Z,12104
2016-03-07T12:43:24.730Z,12232
2016-03-07T12:44:24.687Z,12236
2016-03-07T12:45:24.674Z,12200
2016-03-07T12:46:24.707Z,12108
2016-03-07T12:47:24.695Z,11868
2016-03-07T12:48:24.681Z,11568
2016-03-07T12:49:24.763Z,11228
2016-03-07T12:50:24.687Z,10908
2016-03-07T12:51:24.689Z,10564
2016-03-07T12:52:24.677Z,10188
2016-03-07T12:53:24.679Z,9912
2016-03-07T12:54:24.666Z,9656
2016-03-07T12:55:24.685Z,9504
2016-03-07T12:56:24.687Z,9420
2016-03-07T12:57:24.675Z,9240
2016-03-07T12:58:24.692Z,9132
2016-03-07T12:59:24.664Z,9156
2016-03-07T13:00:24.808Z,8968
2016-03-07T13:01:24.685Z,8548
2016-03-07T13:02:24.672Z,8408
2016-03-07T13:03:24.675Z,8084
2016-03-07T13:04:24.521Z,7332
2016-03-07T13:05:24.664Z,7956
2016-03-07T13:06:24.667Z,7864
2016-03-07T13:07:24.669Z,7684
2016-03-07T13:08:24.688Z,7576
2016-03-07T13:09:24.675Z,7476
2016-03-07T13:10:24.677Z,7424
2016-03-07T13:11:24.696Z,7416
2016-03-07T13:12:24.683Z,7348
2016-03-07T13:13:24.671Z,7292
2016-03-07T13:14:24.688Z,7188
2016-03-07T13:15:24.520Z,7096
2016-03-07T13:16:24.694Z,7000
2016-03-07T13:17:24.696Z,6896
2016-03-07T13:18:24.699Z,6868
2016-03-07T13:19:24.671Z,6832
2016-03-07T13:20:24.705Z,6796
2016-03-07T13:21:24.676Z,6732
2016-03-07T13:22:24.679Z,6636
2016-03-07T13:23:24.681Z,6544
2016-03-07T13:24:24.670Z,6464
2016-03-07T13:25:24.687Z,6400
2016-03-07T13:26:24.689Z,6324
2016-03-07T13:27:24.677Z,6272
2016-03-07T13:28:24.695Z,6212
2016-03-07T13:29:24.683Z,6200
2016-03-07T13:30:24.669Z,6164
2016-03-07T13:31:24.673Z,6124
2016-03-07T13:32:24.675Z,6076
2016-03-07T13:33:24.693Z,5988
2016-03-07T13:34:24.680Z,5968
2016-03-07T13:35:24.683Z,5996
2016-03-07T13:36:24.686Z,5992
2016-03-07T13:37:24.705Z,5960
2016-03-07T13:38:24.675Z,5932
2016-03-07T13:39:24.678Z,5808
2016-03-07T13:40:24.696Z,5708
2016-03-07T13:41:24.683Z,5668
2016-03-07T13:42:24.686Z,5688
2016-03-07T13:43:24.658Z,5576
2016-03-07T13:44:24.677Z,5200
2016-03-07T13:45:24.679Z,5216
2016-03-07T13:46:24.524Z,5152
2016-03-07T13:47:24.668Z,5100
2016-03-07T13:48:24.687Z,5160
2016-03-07T13:49:24.690Z,5300
2016-03-07T13:50:24.708Z,5280
2016-03-07T13:51:24.663Z,5428
2016-03-07T13:52:24.665Z,5612
2016-03-07T13:53:24.685Z,5712